createdAt,value
2022-10-22T00:00:48.710Z,69.96
2022-10-22T00:01:48.720Z,69.96
2022-10-22T00:02:48.771Z,69.96
2022-10-22T00:03:48.675Z,69.96
2022-10-22T00:04:48.680Z,69.96
2022-10-22T00:05:48.655Z,69.96
2022-10-22T00:06:48.643Z,69.96
2022-10-22T00:07:48.661Z,69.96
2022-10-22T00:08:48.712Z,69.96
2022-10-22T00:09:48.613Z,69.96
2022-10-22T00:10:48.600Z,69.85
2022-10-22T00:11:48.590Z,69.96
2022-10-22T00:12:48.607Z,69.96
2022-10-22T00:13:48.583Z,69.85
2022-10-22T00:14:48.555Z,69.96
2022-10-22T00:15:48.545Z,69.85
2022-10-22T00:16:48.535Z,69.96
2022-10-22T00:17:48.595Z,69.96
2022-10-22T00:18:48.512Z,69.85
2022-10-22T00:19:48.505Z,69.96
2022-10-22T00:20:48.491Z,69.85
2022-10-22T00:21:48.487Z,69.96
2022-10-22T00:22:48.527Z,69.96
2022-10-22T00:23:48.491Z,69.96
2022-10-22T00:24:48.450Z,69.96
2022-10-22T00:25:48.439Z,69.96
2022-10-22T00:26:48.428Z,69.96
2022-10-22T00:27:48.416Z,69.85
2022-10-22T00:28:48.433Z,69.85
2022-10-22T00:29:48.396Z,69.96
2022-10-22T00:30:48.385Z,69.96
2022-10-22T00:31:48.412Z,69.96
2022-10-22T00:32:48.365Z,69.96
2022-10-22T00:33:48.408Z,69.85
2022-10-22T00:34:48.342Z,69.85
2022-10-22T00:35:48.332Z,69.85
2022-10-22T00:36:48.320Z,69.96
2022-10-22T00:37:48.312Z,69.85
2022-10-22T00:38:48.328Z,69.85
2022-10-22T00:39:48.289Z,69.85
2022-10-22T00:40:48.322Z,69.96
2022-10-22T00:41:48.266Z,69.96
2022-10-22T00:42:48.255Z,69.85
2022-10-22T00:43:48.275Z,69.85
2022-10-22T00:44:48.235Z,69.85
2022-10-22T00:45:48.227Z,69.85
2022-10-22T00:46:48.214Z,69.85
2022-10-22T00:47:48.203Z,69.89
2022-10-22T00:48:48.219Z,69.85
2022-10-22T00:49:48.206Z,69.85
2022-10-22T00:50:48.172Z,69.85
2022-10-22T00:51:48.163Z,69.85
2022-10-22T00:52:48.149Z,69.85
2022-10-22T00:53:48.169Z,69.85
2022-10-22T00:54:48.127Z,69.85
2022-10-22T00:55:48.117Z,69.85
2022-10-22T00:56:48.106Z,69.85
2022-10-22T00:57:48.097Z,69.85
2022-10-22T00:58:48.111Z,69.85
2022-10-22T00:59:48.083Z,69.85
2022-10-22T01:00:48.108Z,69.85
2022-10-22T01:01:48.055Z,69.85
2022-10-22T01:02:48.043Z,69.89
2022-10-22T01:03:48.061Z,69.85
2022-10-22T01:04:48.047Z,69.85
2022-10-22T01:05:48.036Z,69.85
2022-10-22T01:06:48.004Z,69.85
2022-10-22T01:07:47.993Z,69.89
2022-10-22T01:08:48.065Z,69.85
2022-10-22T01:09:47.998Z,69.85
2022-10-22T01:10:47.960Z,69.85
2022-10-22T01:11:47.948Z,69.85
2022-10-22T01:12:47.940Z,69.85
2022-10-22T01:13:47.928Z,69.85
2022-10-22T01:14:47.946Z,69.85
2022-10-22T01:15:47.905Z,69.89
2022-10-22T01:16:47.896Z,69.85
2022-10-22T01:17:47.885Z,69.85
2022-10-22T01:18:47.877Z,69.85
2022-10-22T01:19:47.892Z,69.85
2022-10-22T01:20:47.855Z,69.85
2022-10-22T01:21:47.865Z,69.89
2022-10-22T01:22:47.833Z,69.89
2022-10-22T01:23:47.823Z,69.89
2022-10-22T01:24:47.837Z,69.89
2022-10-22T01:25:47.826Z,69.89
2022-10-22T01:26:47.792Z,69.85
2022-10-22T01:27:47.781Z,69.89
2022-10-22T01:28:47.768Z,69.89
2022-10-22T01:29:47.757Z,69.89
2022-10-22T01:30:47.773Z,69.89
2022-10-22T01:31:47.772Z,69.89
2022-10-22T01:32:47.729Z,69.89
2022-10-22T01:33:47.715Z,69.89
2022-10-22T01:34:47.705Z,69.85
2022-10-22T01:35:47.721Z,69.89
2022-10-22T01:36:47.684Z,69.85
2022-10-22T01:37:47.701Z,69.89
2022-10-22T01:38:47.667Z,69.89
2022-10-22T01:39:47.650Z,69.89
2022-10-22T01:40:47.673Z,69.89
2022-10-22T01:41:47.658Z,69.79
2022-10-22T01:42:47.621Z,69.89
2022-10-22T01:43:47.610Z,69.89
2022-10-22T01:44:47.600Z,69.89
2022-10-22T01:45:47.587Z,69.89
2022-10-22T01:46:47.604Z,69.89
2022-10-22T01:47:47.566Z,69.89
2022-10-22T01:48:47.556Z,69.89
2022-10-22T01:49:47.545Z,69.89
2022-10-22T01:50:47.536Z,69.89
2022-10-22T01:51:47.553Z,69.79
2022-10-22T01:52:47.515Z,69.89
2022-10-22T01:53:47.535Z,69.79
2022-10-22T01:54:47.495Z,69.89
2022-10-22T01:55:47.482Z,69.89
2022-10-22T01:56:47.499Z,69.79
2022-10-22T01:57:47.460Z,69.89
2022-10-22T01:58:47.452Z,69.89
2022-10-22T01:59:47.439Z,69.79
2022-10-22T02:00:47.488Z,69.89
2022-10-22T02:01:47.451Z,69.89
2022-10-22T02:03:47.396Z,69.79
2022-10-22T02:04:47.391Z,69.79
2022-10-22T02:05:47.375Z,69.89
2022-10-22T02:06:47.365Z,69.89
2022-10-22T02:07:47.383Z,69.79
2022-10-22T02:08:47.441Z,69.79
2022-10-22T02:09:47.356Z,69.79
2022-10-22T02:10:47.323Z,69.79
2022-10-22T02:11:47.309Z,69.79
2022-10-22T02:12:47.330Z,69.89
2022-10-22T02:13:47.288Z,69.79
2022-10-22T02:14:47.283Z,69.89
2022-10-22T02:15:47.267Z,69.79
2022-10-22T02:16:47.262Z,69.79
2022-10-22T02:17:47.276Z,69.89
2022-10-22T02:18:47.260Z,69.79
2022-10-22T02:19:47.224Z,69.79
2022-10-22T02:20:47.214Z,69.79
2022-10-22T02:21:47.202Z,69.79
2022-10-22T02:22:47.197Z,69.89
2022-10-22T02:23:47.211Z,69.79
2022-10-22T02:24:47.175Z,69.79
2022-10-22T02:25:47.186Z,69.89
2022-10-22T02:26:47.152Z,69.79
2022-10-22T02:27:47.141Z,69.89
2022-10-22T02:28:47.158Z,69.89
2022-10-22T02:29:47.118Z,69.79
2022-10-22T02:30:47.110Z,69.79
2022-10-22T02:31:47.096Z,69.79
2022-10-22T02:32:47.090Z,69.79
2022-10-22T02:33:47.107Z,69.79
2022-10-22T02:34:47.067Z,69.89
2022-10-22T02:35:47.055Z,69.79
2022-10-22T02:36:49.674Z,69.79
2022-10-22T02:37:47.034Z,69.79
2022-10-22T02:38:47.081Z,69.79
2022-10-22T02:39:47.014Z,69.79
2022-10-22T02:40:47.002Z,69.79
2022-10-22T02:41:47.019Z,69.79
2022-10-22T02:42:46.982Z,69.79
2022-10-22T02:43:46.971Z,69.79
2022-10-22T02:44:46.990Z,69.79
2022-10-22T02:45:46.949Z,69.79
2022-10-22T02:46:46.941Z,69.79
2022-10-22T02:47:46.929Z,69.79
2022-10-22T02:48:46.919Z,69.79
2022-10-22T02:49:46.938Z,69.79
2022-10-22T02:50:46.899Z,69.79
2022-10-22T02:51:46.886Z,69.79
2022-10-22T02:52:46.876Z,69.79
2022-10-22T02:53:46.865Z,69.79
2022-10-22T02:54:46.885Z,69.79
2022-10-22T02:55:46.843Z,69.79
2022-10-22T02:56:46.838Z,69.79
2022-10-22T02:57:46.847Z,69.79
2022-10-22T02:58:46.813Z,69.79
2022-10-22T02:59:46.831Z,69.79
2022-10-22T03:00:46.869Z,69.79
2022-10-22T03:01:46.782Z,69.79
2022-10-22T03:02:46.772Z,69.79
2022-10-22T03:03:46.760Z,69.79
2022-10-22T03:04:46.777Z,69.79
2022-10-22T03:05:46.741Z,69.79
2022-10-22T03:06:46.730Z,69.79
2022-10-22T03:07:46.720Z,69.79
2022-10-22T03:08:46.762Z,69.79
2022-10-22T03:09:46.723Z,69.79
2022-10-22T03:10:46.685Z,69.79
2022-10-22T03:11:46.677Z,69.79
2022-10-22T03:12:46.663Z,69.79
2022-10-22T03:13:46.677Z,69.79
2022-10-22T03:14:46.670Z,69.79
2022-10-22T03:15:46.634Z,69.79
2022-10-22T03:16:46.622Z,69.79
2022-10-22T03:17:46.615Z,69.79
2022-10-22T03:18:46.601Z,69.79
2022-10-22T03:19:46.617Z,69.79
2022-10-22T03:20:46.581Z,69.79
2022-10-22T03:21:46.572Z,69.79
2022-10-22T03:22:46.559Z,69.79
2022-10-22T03:23:46.550Z,69.79
2022-10-22T03:24:46.570Z,69.79
2022-10-22T03:25:46.593Z,69.79
2022-10-22T03:26:46.516Z,69.79
2022-10-22T03:27:46.535Z,69.79
2022-10-22T03:28:46.495Z,69.79
2022-10-22T03:29:46.510Z,69.79
2022-10-22T03:30:46.475Z,69.79
2022-10-22T03:31:46.464Z,69.79
2022-10-22T03:32:46.482Z,69.79
2022-10-22T03:33:46.443Z,69.79
2022-10-22T03:34:46.564Z,69.79
2022-10-22T03:35:46.425Z,69.79
2022-10-22T03:36:46.412Z,69.79
2022-10-22T03:37:46.401Z,69.79
2022-10-22T03:38:46.392Z,69.79
2022-10-22T03:39:46.409Z,69.79
2022-10-22T03:40:46.369Z,69.79
2022-10-22T03:41:46.386Z,69.79
2022-10-22T03:42:46.352Z,69.79
2022-10-22T03:43:46.338Z,69.79
2022-10-22T03:44:46.327Z,69.79
2022-10-22T03:45:46.353Z,69.79
2022-10-22T03:46:46.334Z,69.79
2022-10-22T03:47:46.298Z,69.79
2022-10-22T03:48:46.288Z,69.79
2022-10-22T03:49:46.278Z,69.79
2022-10-22T03:50:46.274Z,69.79
2022-10-22T03:51:46.278Z,69.79
2022-10-22T03:52:46.243Z,69.79
2022-10-22T03:53:46.230Z,69.79
2022-10-22T03:54:46.222Z,69.79
2022-10-22T03:55:46.208Z,69.79
2022-10-22T03:56:46.225Z,69.79
2022-10-22T03:57:46.188Z,69.79
2022-10-22T03:58:46.180Z,69.79
2022-10-22T03:59:46.167Z,69.79
2022-10-22T04:00:46.211Z,69.79
2022-10-22T04:01:46.197Z,69.79
2022-10-22T04:02:46.138Z,69.79
2022-10-22T04:03:46.126Z,69.79
2022-10-22T04:04:46.121Z,69.79
2022-10-22T04:05:46.104Z,69.79
2022-10-22T04:06:46.121Z,69.79
2022-10-22T04:07:46.082Z,69.79
2022-10-22T04:08:46.173Z,69.79
2022-10-22T04:09:46.061Z,69.79
2022-10-22T04:10:46.054Z,69.79
2022-10-22T04:11:46.067Z,69.79
2022-10-22T04:12:46.033Z,69.79
2022-10-22T04:13:46.046Z,69.79
2022-10-22T04:14:46.011Z,69.79
2022-10-22T04:16:45.988Z,69.79
2022-10-22T04:17:46.002Z,69.79
2022-10-22T04:18:45.996Z,69.79
2022-10-22T04:19:45.957Z,69.79
2022-10-22T04:20:45.974Z,69.79
2022-10-22T04:21:45.935Z,69.79
2022-10-22T04:22:45.926Z,69.79
2022-10-22T04:23:45.915Z,69.79
2022-10-22T04:24:45.951Z,69.79
2022-10-22T04:25:45.922Z,69.79
2022-10-22T04:26:45.884Z,69.79
2022-10-22T04:27:45.872Z,69.79
2022-10-22T04:28:45.863Z,69.79
2022-10-22T04:29:45.851Z,69.79
2022-10-22T04:30:45.846Z,69.79
2022-10-22T04:31:45.855Z,69.79
2022-10-22T04:32:45.822Z,69.79
2022-10-22T04:33:45.833Z,69.79
2022-10-22T04:34:45.802Z,69.79
2022-10-22T04:35:45.787Z,69.79
2022-10-22T04:36:45.803Z,69.79
2022-10-22T04:37:45.769Z,69.79
2022-10-22T04:38:45.756Z,69.79
2022-10-22T04:39:45.745Z,69.79
2022-10-22T04:40:45.737Z,69.79
2022-10-22T04:41:45.752Z,69.79
2022-10-22T04:42:45.743Z,69.79
2022-10-22T04:43:45.703Z,69.79
2022-10-22T04:44:45.695Z,69.79
2022-10-22T04:45:45.728Z,69.79
2022-10-22T04:46:45.676Z,69.79
2022-10-22T04:47:45.690Z,69.79
2022-10-22T04:48:45.683Z,69.79
2022-10-22T04:49:45.663Z,69.79
2022-10-22T04:50:45.632Z,69.79
2022-10-22T04:51:45.618Z,69.79
2022-10-22T04:52:45.615Z,69.79
2022-10-22T04:53:45.597Z,69.79
2022-10-22T04:54:45.617Z,69.79
2022-10-22T04:55:45.578Z,69.79
2022-10-22T04:56:45.569Z,69.79
2022-10-22T04:57:45.558Z,69.79
2022-10-22T04:58:45.578Z,69.79
2022-10-22T04:59:45.534Z,69.79
2022-10-22T05:00:45.606Z,69.79
2022-10-22T05:01:45.516Z,69.79
2022-10-22T05:02:45.506Z,69.79
2022-10-22T05:03:45.521Z,69.79
2022-10-22T05:04:45.485Z,69.79
2022-10-22T05:05:45.495Z,69.79
2022-10-22T05:06:45.470Z,69.79
2022-10-22T05:07:45.450Z,69.79
2022-10-22T05:08:45.577Z,69.79
2022-10-22T05:09:45.433Z,69.79
2022-10-22T05:10:45.419Z,69.79
2022-10-22T05:11:45.480Z,69.79
2022-10-22T05:12:45.424Z,69.79
2022-10-22T05:13:45.387Z,69.79
2022-10-22T05:14:45.381Z,69.79
2022-10-22T05:15:45.368Z,69.79
2022-10-22T05:17:45.382Z,69.79
2022-10-22T05:18:45.338Z,69.79
2022-10-22T05:19:45.352Z,69.79
2022-10-22T05:20:45.335Z,69.79
2022-10-22T05:21:45.327Z,69.79
2022-10-22T05:22:45.296Z,69.79
2022-10-22T05:23:45.285Z,69.79
2022-10-22T05:24:45.298Z,69.79
2022-10-22T05:25:45.264Z,69.79
2022-10-22T05:26:45.277Z,69.79
2022-10-22T05:27:45.243Z,69.79
2022-10-22T05:28:45.231Z,69.79
2022-10-22T05:29:45.221Z,69.79
2022-10-22T05:30:45.209Z,69.79
2022-10-22T05:31:45.228Z,69.79
2022-10-22T05:32:45.214Z,69.79
2022-10-22T05:33:45.179Z,69.79
2022-10-22T05:34:45.166Z,69.79
2022-10-22T05:35:46.844Z,69.79
2022-10-22T05:36:45.147Z,69.79
2022-10-22T05:37:45.211Z,69.79
2022-10-22T05:38:45.128Z,69.79
2022-10-22T05:39:45.143Z,69.79
2022-10-22T05:40:45.107Z,69.79
2022-10-22T05:41:45.097Z,69.79
2022-10-22T05:42:45.082Z,69.79
2022-10-22T05:43:45.073Z,69.79
2022-10-22T05:44:45.092Z,69.79
2022-10-22T05:45:45.052Z,69.79
2022-10-22T05:46:45.041Z,69.79
2022-10-22T05:47:45.035Z,69.69
2022-10-22T05:48:45.020Z,69.79
2022-10-22T05:49:45.046Z,69.69
2022-10-22T05:50:44.998Z,69.79
2022-10-22T05:51:44.990Z,69.79
2022-10-22T05:52:44.980Z,69.79
2022-10-22T05:53:44.992Z,69.69
2022-10-22T05:54:44.955Z,69.79
2022-10-22T05:55:44.974Z,69.69
2022-10-22T05:56:44.934Z,69.69
2022-10-22T05:57:44.927Z,69.69
2022-10-22T05:58:44.916Z,69.69
2022-10-22T05:59:44.935Z,69.69
2022-10-22T06:00:44.893Z,69.69
2022-10-22T06:01:45.017Z,69.69
2022-10-22T06:02:44.872Z,69.69
2022-10-22T06:03:44.865Z,69.69
2022-10-22T06:04:44.879Z,69.69
2022-10-22T06:05:44.842Z,69.79
2022-10-22T06:06:44.875Z,69.69
2022-10-22T06:07:44.820Z,69.69
2022-10-22T06:08:44.890Z,69.69
2022-10-22T06:09:44.864Z,69.69
2022-10-22T06:10:44.799Z,69.69
2022-10-22T06:11:44.790Z,69.79
2022-10-22T06:12:44.849Z,69.69
2022-10-22T06:13:44.777Z,69.79
2022-10-22T06:14:44.747Z,69.79
2022-10-22T06:15:44.739Z,69.69
2022-10-22T06:16:44.727Z,69.79
2022-10-22T06:17:44.741Z,69.79
2022-10-22T06:18:44.703Z,69.79
2022-10-22T06:19:44.693Z,69.79
2022-10-22T06:20:44.682Z,69.69
2022-10-22T06:21:44.674Z,69.69
2022-10-22T06:22:44.688Z,69.69
2022-10-22T06:23:44.684Z,69.69
2022-10-22T06:24:45.245Z,69.79
2022-10-22T06:25:44.656Z,69.79
2022-10-22T06:26:44.645Z,69.69
2022-10-22T06:27:44.610Z,69.69
2022-10-22T06:28:44.599Z,69.69
2022-10-22T06:29:44.590Z,69.69
2022-10-22T06:30:46.612Z,69.69
2022-10-22T06:31:44.595Z,69.69
2022-10-22T06:32:44.556Z,69.69
2022-10-22T06:33:44.555Z,69.69
2022-10-22T06:34:44.534Z,69.69
2022-10-22T06:35:44.525Z,69.69
2022-10-22T06:36:44.550Z,69.69
2022-10-22T06:37:44.504Z,69.69
2022-10-22T06:38:44.492Z,69.69
2022-10-22T06:39:44.482Z,69.69
2022-10-22T06:40:44.471Z,69.69
2022-10-22T06:41:44.514Z,69.69
2022-10-22T06:42:44.450Z,69.69
2022-10-22T06:43:44.441Z,69.69
2022-10-22T06:44:44.429Z,69.69
2022-10-22T06:45:44.449Z,69.69
2022-10-22T06:46:44.407Z,69.69
2022-10-22T06:47:44.397Z,69.69
2022-10-22T06:48:44.388Z,69.69
2022-10-22T06:49:44.378Z,69.69
2022-10-22T06:50:44.393Z,69.69
2022-10-22T06:51:44.383Z,69.69
2022-10-22T06:52:44.347Z,69.69
2022-10-22T06:53:44.338Z,69.69
2022-10-22T06:54:44.325Z,69.69
2022-10-22T06:55:44.314Z,69.69
2022-10-22T06:56:44.327Z,69.79
2022-10-22T06:57:44.420Z,69.79
2022-10-22T06:58:44.280Z,69.69
2022-10-22T06:59:44.297Z,69.69
2022-10-22T07:00:44.262Z,69.79
2022-10-22T07:01:44.333Z,69.99
2022-10-22T07:02:44.336Z,70.19
2022-10-22T07:03:44.233Z,70.29
2022-10-22T07:04:44.245Z,70.29
2022-10-22T07:05:44.212Z,70.39
2022-10-22T07:06:44.196Z,70.36
2022-10-22T07:07:44.186Z,70.26
2022-10-22T07:08:44.245Z,69.85
2022-10-22T07:09:44.193Z,69.76
2022-10-22T07:10:44.154Z,69.66
2022-10-22T07:11:44.146Z,69.76
2022-10-22T07:12:44.308Z,69.56
2022-10-22T07:13:44.176Z,69.66
2022-10-22T07:14:44.114Z,69.76
2022-10-22T07:15:44.106Z,69.85
2022-10-22T07:16:44.092Z,69.85
2022-10-22T07:17:44.084Z,69.85
2022-10-22T07:18:44.103Z,69.85
2022-10-22T07:19:47.109Z,69.85
2022-10-22T07:20:44.051Z,70.06
2022-10-22T07:21:44.041Z,70.26
2022-10-22T07:22:44.101Z,70.26
2022-10-22T07:23:44.019Z,70.26
2022-10-22T07:24:44.034Z,70.16
2022-10-22T07:25:44.048Z,70.16
2022-10-22T07:26:43.985Z,70.16
2022-10-22T07:27:44.046Z,70.16
2022-10-22T07:28:43.963Z,70.16
2022-10-22T07:29:44.003Z,70.16
2022-10-22T07:30:43.942Z,70.16
2022-10-22T07:31:43.934Z,70.16
2022-10-22T07:32:43.920Z,70.26
2022-10-22T07:33:43.912Z,70.26
2022-10-22T07:34:44.084Z,70.16
2022-10-22T07:35:43.917Z,70.16
2022-10-22T07:36:43.879Z,70.12
2022-10-22T07:37:44.049Z,70.03
2022-10-22T07:38:43.856Z,69.92
2022-10-22T07:39:43.852Z,70.03
2022-10-22T07:40:43.877Z,70.03
2022-10-22T07:41:43.825Z,69.92
2022-10-22T07:42:43.822Z,70.03
2022-10-22T07:43:43.807Z,70.03
2022-10-22T07:44:43.793Z,70.03
2022-10-22T07:45:43.802Z,69.92
2022-10-22T07:46:48.040Z,69.79
2022-10-22T07:47:44.757Z,69.79
2022-10-22T07:48:43.748Z,69.69
2022-10-22T07:49:43.739Z,69.69
2022-10-22T07:51:43.743Z,69.59
2022-10-22T07:52:43.922Z,69.49
2022-10-22T07:53:43.720Z,69.49
2022-10-22T07:54:43.686Z,69.39
2022-10-22T07:55:43.675Z,69.26
2022-10-22T07:56:43.665Z,69.26
2022-10-22T07:57:43.651Z,69.16
2022-10-22T07:58:43.669Z,69.16
2022-10-22T07:59:43.632Z,69.06
2022-10-22T08:00:43.624Z,69.06
2022-10-22T08:01:43.634Z,68.96
2022-10-22T08:02:43.914Z,68.96
2022-10-22T08:03:43.638Z,68.85
2022-10-22T08:04:43.581Z,68.85
2022-10-22T08:05:43.578Z,68.85
2022-10-22T08:06:47.148Z,68.76
2022-10-22T08:07:43.579Z,68.76
2022-10-22T08:08:43.665Z,68.62
2022-10-22T08:09:43.521Z,68.62
2022-10-22T08:10:43.515Z,68.52
2022-10-22T08:11:43.501Z,68.42
2022-10-22T08:12:44.087Z,68.42
2022-10-22T08:13:45.580Z,68.42
2022-10-22T08:14:43.470Z,68.42
2022-10-22T08:16:43.447Z,68.32
2022-10-22T08:17:44.075Z,68.32
2022-10-22T08:18:43.427Z,68.32
2022-10-22T08:19:43.414Z,68.32
2022-10-22T08:20:43.435Z,68.32
2022-10-22T08:21:43.394Z,68.32
2022-10-22T08:22:43.383Z,68.52
2022-10-22T08:23:43.370Z,68.62
2022-10-22T08:24:43.359Z,68.62
2022-10-22T08:25:43.381Z,68.62
2022-10-22T08:26:43.337Z,68.62
2022-10-22T08:27:43.671Z,68.62
2022-10-22T08:28:43.315Z,68.62
2022-10-22T08:29:43.305Z,68.52
2022-10-22T08:30:43.323Z,68.52
2022-10-22T08:31:43.306Z,68.52
2022-10-22T08:32:43.298Z,68.52
2022-10-22T08:33:43.290Z,68.52
2022-10-22T08:34:43.250Z,68.52
2022-10-22T08:35:43.242Z,68.42
2022-10-22T08:36:43.230Z,68.52
2022-10-22T08:37:43.565Z,68.52
2022-10-22T08:38:43.210Z,68.52
2022-10-22T08:39:43.198Z,68.52
2022-10-22T08:40:43.235Z,68.52
2022-10-22T08:41:43.174Z,68.52
2022-10-22T08:42:43.565Z,68.52
2022-10-22T08:43:43.153Z,68.52
2022-10-22T08:44:43.142Z,68.52
2022-10-22T08:45:43.135Z,68.55
2022-10-22T08:46:43.120Z,68.55
2022-10-22T08:47:43.140Z,68.65
2022-10-22T08:48:43.102Z,68.65
2022-10-22T08:49:43.114Z,68.65
2022-10-22T08:50:43.104Z,68.62
2022-10-22T08:51:43.067Z,68.65
2022-10-22T08:52:43.508Z,68.65
2022-10-22T08:53:43.045Z,68.65
2022-10-22T08:54:43.037Z,68.65
2022-10-22T08:55:43.050Z,68.65
2022-10-22T08:56:43.012Z,68.65
2022-10-22T08:57:43.002Z,68.65
2022-10-22T08:58:42.991Z,68.65
2022-10-22T08:59:42.981Z,68.76
2022-10-22T09:00:42.994Z,68.76
2022-10-22T09:01:42.963Z,68.76
2022-10-22T09:02:43.531Z,68.76
2022-10-22T09:03:42.938Z,68.85
2022-10-22T09:04:42.924Z,68.85
2022-10-22T09:05:43.011Z,68.96
2022-10-22T09:06:42.938Z,68.96
2022-10-22T09:07:43.314Z,68.96
2022-10-22T09:08:42.930Z,68.96
2022-10-22T09:09:42.876Z,69.06
2022-10-22T09:10:42.860Z,69.16
2022-10-22T09:11:42.853Z,69.26
2022-10-22T09:12:42.866Z,69.35
2022-10-22T09:13:42.829Z,69.46
2022-10-22T09:14:42.815Z,69.46
2022-10-22T09:15:45.034Z,69.56
2022-10-22T09:16:42.797Z,69.56
2022-10-22T09:17:43.056Z,69.56
2022-10-22T09:18:42.775Z,69.56
2022-10-22T09:19:42.766Z,69.56
2022-10-22T09:20:42.789Z,69.66
2022-10-22T09:21:42.765Z,69.66
2022-10-22T09:22:42.738Z,69.66
2022-10-22T09:23:42.719Z,69.53
2022-10-22T09:24:42.707Z,69.62
2022-10-22T09:25:42.699Z,69.66
2022-10-22T09:26:42.712Z,69.73
2022-10-22T09:27:43.143Z,69.73
2022-10-22T09:28:42.663Z,69.62
2022-10-22T09:29:42.656Z,69.73
2022-10-22T09:30:42.642Z,69.73
2022-10-22T09:31:42.661Z,69.73
2022-10-22T09:32:43.086Z,69.73
2022-10-22T09:33:42.611Z,69.62
2022-10-22T09:34:42.601Z,69.62
2022-10-22T09:35:42.589Z,69.73
2022-10-22T09:36:42.606Z,69.82
2022-10-22T09:37:42.588Z,69.82
2022-10-22T09:38:42.555Z,69.73
2022-10-22T09:39:42.543Z,69.62
2022-10-22T09:40:42.534Z,69.62
2022-10-22T09:41:42.549Z,69.73
2022-10-22T09:42:42.831Z,69.82
2022-10-22T09:43:42.502Z,69.73
2022-10-22T09:44:44.930Z,69.62
2022-10-22T09:45:43.479Z,69.53
2022-10-22T09:46:42.494Z,69.82
2022-10-22T09:47:43.405Z,69.93
2022-10-22T09:48:43.444Z,69.93
2022-10-22T09:49:42.437Z,69.82
2022-10-22T09:50:42.424Z,69.73
2022-10-22T09:51:42.440Z,69.82
2022-10-22T09:52:42.725Z,69.93
2022-10-22T09:53:42.444Z,69.93
2022-10-22T09:54:42.385Z,69.82
2022-10-22T09:55:42.375Z,69.82
2022-10-22T09:56:42.362Z,69.73
2022-10-22T09:57:43.842Z,69.62
2022-10-22T09:58:42.372Z,69.53
2022-10-22T09:59:42.332Z,69.53
2022-10-22T10:00:42.316Z,69.42
2022-10-22T10:01:42.306Z,69.42
2022-10-22T10:02:42.304Z,69.42
2022-10-22T10:03:42.286Z,69.32
2022-10-22T10:04:42.317Z,69.32
2022-10-22T10:05:42.266Z,69.23
2022-10-22T10:06:42.253Z,69.23
2022-10-22T10:07:42.684Z,69.23
2022-10-22T10:08:42.282Z,69.23
2022-10-22T10:09:42.273Z,69.12
2022-10-22T10:10:42.217Z,69.12
2022-10-22T10:11:42.203Z,69.12
2022-10-22T10:12:42.255Z,69.12
2022-10-22T10:13:42.187Z,69.12
2022-10-22T10:14:42.193Z,69.12
2022-10-22T10:15:42.158Z,69.02
2022-10-22T10:16:42.145Z,69.02
2022-10-22T10:17:42.526Z,69.02
2022-10-22T10:18:42.123Z,69.02
2022-10-22T10:19:42.149Z,68.92
2022-10-22T10:20:42.102Z,68.92
2022-10-22T10:21:42.093Z,68.92
2022-10-22T10:22:42.488Z,68.92
2022-10-22T10:23:42.074Z,68.92
2022-10-22T10:24:42.085Z,69.12
2022-10-22T10:25:42.076Z,69.12
2022-10-22T10:26:42.038Z,69.02
2022-10-22T10:27:42.036Z,69.02
2022-10-22T10:28:42.021Z,69.02
2022-10-22T10:29:42.033Z,69.02
2022-10-22T10:30:41.994Z,69.02
2022-10-22T10:31:42.013Z,69.02
2022-10-22T10:32:42.304Z,69.02
2022-10-22T10:33:41.965Z,69.02
2022-10-22T10:34:41.952Z,69.02
2022-10-22T10:35:41.943Z,69.02
2022-10-22T10:36:41.957Z,69.02
2022-10-22T10:37:41.952Z,69.02
2022-10-22T10:38:41.918Z,69.02
2022-10-22T10:39:41.901Z,69.02
2022-10-22T10:40:41.886Z,69.02
2022-10-22T10:41:41.901Z,69.02
2022-10-22T10:42:42.186Z,69.02
2022-10-22T10:43:41.856Z,69.02
2022-10-22T10:44:41.842Z,69.02
2022-10-22T10:45:41.834Z,69.02
2022-10-22T10:46:41.821Z,69.02
2022-10-22T10:47:42.156Z,69.02
2022-10-22T10:48:41.798Z,69.02
2022-10-22T10:49:41.790Z,69.02
2022-10-22T10:50:41.802Z,69.02
2022-10-22T10:51:41.765Z,68.92
2022-10-22T10:52:41.755Z,68.92
2022-10-22T10:53:41.745Z,68.92
2022-10-22T10:54:41.733Z,68.92
2022-10-22T10:55:41.753Z,68.92
2022-10-22T10:56:41.739Z,68.92
2022-10-22T10:57:42.101Z,69.12
2022-10-22T10:58:41.691Z,69.12
2022-10-22T10:59:41.687Z,69.12
2022-10-22T11:00:41.668Z,69.12
2022-10-22T11:01:41.759Z,69.23
2022-10-22T11:02:41.647Z,69.32
2022-10-22T11:03:41.635Z,69.23
2022-10-22T11:04:41.624Z,69.12
2022-10-22T11:05:41.613Z,69.12
2022-10-22T11:06:41.603Z,69.02
2022-10-22T11:07:41.623Z,68.92
2022-10-22T11:08:41.606Z,68.92
2022-10-22T11:09:41.600Z,68.92
2022-10-22T11:10:41.559Z,68.82
2022-10-22T11:11:41.548Z,68.82
2022-10-22T11:12:41.711Z,68.82
2022-10-22T11:13:41.548Z,68.82
2022-10-22T11:14:41.545Z,68.82
2022-10-22T11:15:41.510Z,68.73
2022-10-22T11:16:41.495Z,68.73
2022-10-22T11:17:41.485Z,68.73
2022-10-22T11:18:41.473Z,68.73
2022-10-22T11:19:59.970Z,68.62
2022-10-22T11:20:42.451Z,68.12
2022-10-22T11:21:41.442Z,68.32
2022-10-22T11:22:50.417Z,68.12
2022-10-22T11:23:42.442Z,67.52
2022-10-22T11:24:41.449Z,67.62
2022-10-22T11:25:41.396Z,67.82
2022-10-22T11:26:41.385Z,67.82
2022-10-22T11:27:41.641Z,67.72
2022-10-22T11:28:41.391Z,67.72
2022-10-22T11:29:41.378Z,67.72
2022-10-22T11:30:41.340Z,67.72
2022-10-22T11:31:41.362Z,67.72
2022-10-22T11:32:41.686Z,67.72
2022-10-22T11:33:41.311Z,67.82
2022-10-22T11:34:41.298Z,67.82
2022-10-22T11:35:41.289Z,67.92
2022-10-22T11:36:41.277Z,67.92
2022-10-22T11:37:41.617Z,67.92
2022-10-22T11:38:41.254Z,67.92
2022-10-22T11:39:41.244Z,68.02
2022-10-22T11:40:41.234Z,68.02
2022-10-22T11:41:41.226Z,68.02
2022-10-22T11:42:41.238Z,68.02
2022-10-22T11:43:41.202Z,68.02
2022-10-22T11:44:41.227Z,68.02
2022-10-22T11:45:41.204Z,68.02
2022-10-22T11:46:41.169Z,68.02
2022-10-22T11:47:41.510Z,68.02
2022-10-22T11:48:41.147Z,68.02
2022-10-22T11:49:41.136Z,68.02
2022-10-22T11:50:41.129Z,68.02
2022-10-22T11:51:41.123Z,68.02
2022-10-22T11:52:41.103Z,68.12
2022-10-22T11:53:41.122Z,68.12
2022-10-22T11:54:41.083Z,68.12
2022-10-22T11:55:41.072Z,68.12
2022-10-22T11:56:41.060Z,68.12
2022-10-22T11:57:41.394Z,68.12
2022-10-22T11:58:41.067Z,68.12
2022-10-22T11:59:41.031Z,68.12
2022-10-22T12:00:41.043Z,68.12
2022-10-22T12:01:41.034Z,68.12
2022-10-22T12:02:41.261Z,68.12
2022-10-22T12:03:40.995Z,68.12
2022-10-22T12:04:41.009Z,68.12
2022-10-22T12:05:41.000Z,68.12
2022-10-22T12:06:40.952Z,68.22
2022-10-22T12:07:40.942Z,68.22
2022-10-22T12:08:40.960Z,68.22
2022-10-22T12:09:40.983Z,68.26
2022-10-22T12:10:40.908Z,68.26
2022-10-22T12:11:40.929Z,68.26
2022-10-22T12:12:41.267Z,68.26
2022-10-22T12:13:40.877Z,68.26
2022-10-22T12:14:40.869Z,68.26
2022-10-22T12:15:40.857Z,68.26
2022-10-22T12:16:57.366Z,68.26
2022-10-22T12:17:41.884Z,68.26
2022-10-22T12:18:40.825Z,68.35
2022-10-22T12:19:40.813Z,68.35
2022-10-22T12:20:40.801Z,68.35
2022-10-22T12:21:40.789Z,68.35
2022-10-22T12:22:41.121Z,68.35
2022-10-22T12:23:40.770Z,68.35
2022-10-22T12:24:40.775Z,68.35
2022-10-22T12:25:40.747Z,68.35
2022-10-22T12:26:40.737Z,68.35
2022-10-22T12:27:41.218Z,68.35
2022-10-22T12:28:40.714Z,68.35
2022-10-22T12:29:40.707Z,68.35
2022-10-22T12:30:40.719Z,68.35
2022-10-22T12:31:40.696Z,68.35
2022-10-22T12:32:40.672Z,68.35
2022-10-22T12:33:40.687Z,68.35
2022-10-22T12:34:40.713Z,68.46
2022-10-22T12:35:40.669Z,68.46
2022-10-22T12:36:40.632Z,68.46
2022-10-22T12:37:41.020Z,68.46
2022-10-22T12:38:40.607Z,68.46
2022-10-22T12:39:40.598Z,68.46
2022-10-22T12:40:44.470Z,68.46
2022-10-22T12:41:41.601Z,68.46
2022-10-22T12:42:40.567Z,68.46
2022-10-22T12:43:40.557Z,68.46
2022-10-22T12:44:40.557Z,68.46
2022-10-22T12:45:40.535Z,68.46
2022-10-22T12:46:40.549Z,68.46
2022-10-22T12:47:40.796Z,68.46
2022-10-22T12:48:40.530Z,68.46
2022-10-22T12:49:40.513Z,68.46
2022-10-22T12:50:40.478Z,68.55
2022-10-22T12:51:40.471Z,68.55
2022-10-22T12:52:40.725Z,68.46
2022-10-22T12:53:40.477Z,68.46
2022-10-22T12:54:40.437Z,68.55
2022-10-22T12:55:40.427Z,68.55
2022-10-22T12:56:40.415Z,68.55
2022-10-22T12:57:40.406Z,68.55